sensor_id;sensor_type;location;lat;lon;timestamp;pressure;altitude;pressure_sealevel;temperature;humidity
58879;BME280;44660;42.664;23.266;2022-10-31T00:01:20;94999.47;;;14.35;47.54
58879;BME280;44660;42.664;23.266;2022-10-31T00:03:46;94999.16;;;14.32;47.77
58879;BME280;44660;42.664;23.266;2022-10-31T00:06:12;94994.13;;;14.35;47.73
58879;BME280;44660;42.664;23.266;2022-10-31T00:08:38;94999.47;;;14.35;48.02
58879;BME280;44660;42.664;23.266;2022-10-31T00:11:03;94990.09;;;14.33;48.01
58879;BME280;44660;42.664;23.266;2022-10-31T00:13:28;94995.69;;;14.31;48.36
58879;BME280;44660;42.664;23.266;2022-10-31T00:15:57;94996.75;;;14.30;48.48
58879;BME280;44660;42.664;23.266;2022-10-31T00:18:22;94998.56;;;14.19;48.82
58879;BME280;44660;42.664;23.266;2022-10-31T00:20:47;94983.97;;;14.05;48.90
58879;BME280;44660;42.664;23.266;2022-10-31T00:23:13;95001.53;;;13.96;49.21
58879;BME280;44660;42.664;23.266;2022-10-31T00:25:39;95002.84;;;13.93;49.47
58879;BME280;44660;42.664;23.266;2022-10-31T00:28:05;95003.84;;;13.87;49.31
58879;BME280;44660;42.664;23.266;2022-10-31T00:30:30;95003.06;;;13.86;49.72
58879;BME280;44660;42.664;23.266;2022-10-31T00:32:55;94998.72;;;13.80;49.80
58879;BME280;44660;42.664;23.266;2022-10-31T00:35:21;94992.06;;;13.83;49.70
58879;BME280;44660;42.664;23.266;2022-10-31T00:37:46;94996.59;;;13.82;50.09
58879;BME280;44660;42.664;23.266;2022-10-31T00:40:12;94989.03;;;13.74;50.11
58879;BME280;44660;42.664;23.266;2022-10-31T00:42:38;94991.69;;;13.74;50.06
58879;BME280;44660;42.664;23.266;2022-10-31T00:45:04;94984.16;;;13.71;50.08
58879;BME280;44660;42.664;23.266;2022-10-31T00:47:29;94985.00;;;13.71;50.43
58879;BME280;44660;42.664;23.266;2022-10-31T00:49:54;94987.19;;;13.80;50.44
58879;BME280;44660;42.664;23.266;2022-10-31T00:52:20;94986.09;;;13.76;50.59
58879;BME280;44660;42.664;23.266;2022-10-31T00:54:45;94983.28;;;13.60;50.96
58879;BME280;44660;42.664;23.266;2022-10-31T00:57:10;94977.94;;;13.60;50.77
58879;BME280;44660;42.664;23.266;2022-10-31T00:59:36;94990.78;;;13.63;50.64
58879;BME280;44660;42.664;23.266;2022-10-31T01:02:01;94981.13;;;13.62;51.09
58879;BME280;44660;42.664;23.266;2022-10-31T01:04:26;94993.97;;;13.60;50.96
58879;BME280;44660;42.664;23.266;2022-10-31T01:06:52;94987.19;;;13.52;51.15
58879;BME280;44660;42.664;23.266;2022-10-31T01:09:17;94987.50;;;13.56;51.16
58879;BME280;44660;42.664;23.266;2022-10-31T01:11:42;94990.03;;;13.46;51.47
58879;BME280;44660;42.664;23.266;2022-10-31T01:14:08;94994.13;;;13.31;51.71
58879;BME280;44660;42.664;23.266;2022-10-31T01:16:34;94997.31;;;13.28;52.17
58879;BME280;44660;42.664;23.266;2022-10-31T01:18:59;94999.53;;;13.36;51.89
58879;BME280;44660;42.664;23.266;2022-10-31T01:21:25;95004.16;;;13.41;51.87
58879;BME280;44660;42.664;23.266;2022-10-31T01:23:52;95000.50;;;13.30;51.87
58879;BME280;44660;42.664;23.266;2022-10-31T01:26:19;95008.03;;;13.33;51.86
58879;BME280;44660;42.664;23.266;2022-10-31T01:28:46;95008.56;;;13.52;51.79
58879;BME280;44660;42.664;23.266;2022-10-31T01:31:12;95006.84;;;13.68;50.97
58879;BME280;44660;42.664;23.266;2022-10-31T01:33:38;95000.06;;;13.83;51.11
58879;BME280;44660;42.664;23.266;2022-10-31T01:36:13;95007.59;;;13.86;50.96
58879;BME280;44660;42.664;23.266;2022-10-31T01:38:39;94998.50;;;13.87;50.75
58879;BME280;44660;42.664;23.266;2022-10-31T01:41:04;94999.31;;;13.87;50.56
58879;BME280;44660;42.664;23.266;2022-10-31T01:43:43;95006.06;;;13.95;50.47
58879;BME280;44660;42.664;23.266;2022-10-31T01:46:08;95010.34;;;13.96;50.70
58879;BME280;44660;42.664;23.266;2022-10-31T01:48:34;95009.28;;;13.97;50.54
58879;BME280;44660;42.664;23.266;2022-10-31T01:50:59;95000.75;;;14.00;50.81
58879;BME280;44660;42.664;23.266;2022-10-31T01:53:25;95004.00;;;14.02;50.77
58879;BME280;44660;42.664;23.266;2022-10-31T01:55:50;95002.94;;;14.03;50.84
58879;BME280;44660;42.664;23.266;2022-10-31T01:58:18;95012.63;;;14.10;50.59
58879;BME280;44660;42.664;23.266;2022-10-31T02:00:45;95010.44;;;14.07;50.52
58879;BME280;44660;42.664;23.266;2022-10-31T02:03:11;95015.25;;;14.04;50.69
58879;BME280;44660;42.664;23.266;2022-10-31T02:05:36;95003.56;;;14.11;50.69
58879;BME280;44660;42.664;23.266;2022-10-31T02:08:04;95003.03;;;14.14;51.07
58879;BME280;44660;42.664;23.266;2022-10-31T02:10:31;94996.59;;;14.10;51.08
58879;BME280;44660;42.664;23.266;2022-10-31T02:12:57;94999.00;;;14.11;50.95
58879;BME280;44660;42.664;23.266;2022-10-31T02:15:23;94993.34;;;14.08;50.81
58879;BME280;44660;42.664;23.266;2022-10-31T02:17:48;94995.75;;;14.09;51.13
58879;BME280;44660;42.664;23.266;2022-10-31T02:20:15;94998.56;;;14.19;50.64
58879;BME280;44660;42.664;23.266;2022-10-31T02:34:58;95020.19;;;14.18;51.64
58879;BME280;44660;42.664;23.266;2022-10-31T02:40:21;95026.59;;;14.17;51.58
58879;BME280;44660;42.664;23.266;2022-10-31T02:42:51;95029.25;;;14.17;51.57
58879;BME280;44660;42.664;23.266;2022-10-31T02:45:35;95030.88;;;14.18;51.70
58879;BME280;44660;42.664;23.266;2022-10-31T02:48:04;95030.38;;;14.21;51.69
58879;BME280;44660;42.664;23.266;2022-10-31T02:50:33;95038.44;;;14.26;51.27
58879;BME280;44660;42.664;23.266;2022-10-31T02:53:00;95031.53;;;14.30;51.18
58879;BME280;44660;42.664;23.266;2022-10-31T02:57:53;95034.19;;;14.30;51.43
58879;BME280;44660;42.664;23.266;2022-10-31T03:00:19;95039.03;;;14.33;51.18
58879;BME280;44660;42.664;23.266;2022-10-31T03:15:23;95040.19;;;14.43;51.51
58879;BME280;44660;42.664;23.266;2022-10-31T03:20:16;95039.63;;;14.41;51.77
58879;BME280;44660;42.664;23.266;2022-10-31T03:22:46;95026.53;;;14.39;51.14
58879;BME280;44660;42.664;23.266;2022-10-31T03:25:11;95032.19;;;14.43;51.43
58879;BME280;44660;42.664;23.266;2022-10-31T03:27:38;95040.25;;;14.48;51.41
58879;BME280;44660;42.664;23.266;2022-10-31T03:30:05;95044.50;;;14.44;51.44
58879;BME280;44660;42.664;23.266;2022-10-31T03:32:34;95039.38;;;14.42;51.98
58879;BME280;44660;42.664;23.266;2022-10-31T03:35:01;95042.56;;;14.39;52.04
58879;BME280;44660;42.664;23.266;2022-10-31T03:37:29;95047.13;;;14.39;51.43
58879;BME280;44660;42.664;23.266;2022-10-31T03:39:56;95051.97;;;14.42;51.56
58879;BME280;44660;42.664;23.266;2022-10-31T03:42:24;95049.03;;;14.43;51.62
58879;BME280;44660;42.664;23.266;2022-10-31T03:45:12;95051.97;;;14.42;51.37
58879;BME280;44660;42.664;23.266;2022-10-31T03:47:36;95061.03;;;14.41;51.58
58879;BME280;44660;42.664;23.266;2022-10-31T03:50:02;95055.19;;;14.44;51.10
58879;BME280;44660;42.664;23.266;2022-10-31T03:55:07;95064.78;;;14.40;51.83
58879;BME280;44660;42.664;23.266;2022-10-31T04:00:04;95058.88;;;14.37;52.30
58879;BME280;44660;42.664;23.266;2022-10-31T04:02:30;95070.94;;;14.40;52.27
58879;BME280;44660;42.664;23.266;2022-10-31T04:04:57;95068.22;;;14.35;52.49
58879;BME280;44660;42.664;23.266;2022-10-31T04:07:23;95069.50;;;14.27;52.64
58879;BME280;44660;42.664;23.266;2022-10-31T04:09:52;95070.50;;;14.21;52.67
58879;BME280;44660;42.664;23.266;2022-10-31T04:12:18;95066.22;;;14.20;52.92
58879;BME280;44660;42.664;23.266;2022-10-31T04:14:46;95076.09;;;14.19;52.77
58879;BME280;44660;42.664;23.266;2022-10-31T04:17:13;95013.66;;;13.81;52.86
58879;BME280;44660;42.664;23.266;2022-10-31T04:19:40;95075.59;;;14.23;53.19
58879;BME280;44660;42.664;23.266;2022-10-31T04:22:05;95069.84;;;14.09;53.70
58879;BME280;44660;42.664;23.266;2022-10-31T04:24:31;95071.44;;;14.10;53.53
58879;BME280;44660;42.664;23.266;2022-10-31T04:26:56;95075.38;;;14.02;53.84
58879;BME280;44660;42.664;23.266;2022-10-31T04:29:21;95073.44;;;13.97;54.08
58879;BME280;44660;42.664;23.266;2022-10-31T04:31:47;95073.44;;;13.97;53.97
58879;BME280;44660;42.664;23.266;2022-10-31T04:34:12;95079.81;;;13.91;54.08
58879;BME280;44660;42.664;23.266;2022-10-31T04:36:37;95074.41;;;13.86;54.40
58879;BME280;44660;42.664;23.266;2022-10-31T04:39:03;95077.53;;;13.78;54.56
58879;BME280;44660;42.664;23.266;2022-10-31T04:41:28;95071.63;;;13.76;54.48
58879;BME280;44660;42.664;23.266;2022-10-31T04:43:54;95079.88;;;13.74;54.65
58879;BME280;44660;42.664;23.266;2022-10-31T04:46:19;95078.22;;;13.68;55.25
58879;BME280;44660;42.664;23.266;2022-10-31T04:48:44;95074.53;;;13.74;54.87
58879;BME280;44660;42.664;23.266;2022-10-31T04:51:10;95074.84;;;13.78;55.17
58879;BME280;44660;42.664;23.266;2022-10-31T04:53:35;95080.19;;;13.78;55.14
58879;BME280;44660;42.664;23.266;2022-10-31T04:56:01;95075.13;;;13.81;54.63
58879;BME280;44660;42.664;23.266;2022-10-31T04:58:27;95090.44;;;13.86;54.69
58879;BME280;44660;42.664;23.266;2022-10-31T05:00:53;95088.28;;;13.83;54.74
58879;BME280;44660;42.664;23.266;2022-10-31T05:03:18;95096.84;;;13.85;54.55
58879;BME280;44660;42.664;23.266;2022-10-31T05:05:43;95095.78;;;13.86;55.04
58879;BME280;44660;42.664;23.266;2022-10-31T05:08:09;95099.28;;;13.86;54.96
58879;BME280;44660;42.664;23.266;2022-10-31T05:10:34;95099.19;;;13.81;55.05
58879;BME280;44660;42.664;23.266;2022-10-31T05:13:00;95109.16;;;13.86;54.95
58879;BME280;44660;42.664;23.266;2022-10-31T05:15:26;95111.88;;;13.91;55.00
58879;BME280;44660;42.664;23.266;2022-10-31T05:17:52;95109.78;;;13.93;54.87
58879;BME280;44660;42.664;23.266;2022-10-31T05:20:18;95114.13;;;13.99;54.61
58879;BME280;44660;42.664;23.266;2022-10-31T05:22:46;95108.25;;;14.02;54.60
58879;BME280;44660;42.664;23.266;2022-10-31T05:25:12;95112.00;;;14.01;54.76
58879;BME280;44660;42.664;23.266;2022-10-31T05:27:38;95110.94;;;14.02;55.01
58879;BME280;44660;42.664;23.266;2022-10-31T05:30:03;95113.13;;;14.06;55.16
58879;BME280;44660;42.664;23.266;2022-10-31T05:32:29;95100.75;;;13.99;55.05
58879;BME280;44660;42.664;23.266;2022-10-31T05:34:55;95109.31;;;14.01;55.45
58879;BME280;44660;42.664;23.266;2022-10-31T05:37:20;95114.66;;;14.01;55.70
58879;BME280;44660;42.664;23.266;2022-10-31T05:39:45;95118.97;;;14.02;55.19
58879;BME280;44660;42.664;23.266;2022-10-31T05:42:11;95126.91;;;13.97;55.14
58879;BME280;44660;42.664;23.266;2022-10-31T05:44:36;95122.50;;;13.86;55.66
58879;BME280;44660;42.664;23.266;2022-10-31T05:47:01;95136.00;;;13.74;56.30
58879;BME280;44660;42.664;23.266;2022-10-31T05:49:27;95138.84;;;13.67;56.78
58879;BME280;44660;42.664;23.266;2022-10-31T05:51:52;95137.72;;;13.63;57.03
58879;BME280;44660;42.664;23.266;2022-10-31T05:54:17;95132.22;;;13.70;56.87
58879;BME280;44660;42.664;23.266;2022-10-31T05:56:43;95139.97;;;13.71;56.96
58879;BME280;44660;42.664;23.266;2022-10-31T05:59:08;95144.03;;;13.74;56.92
58879;BME280;44660;42.664;23.266;2022-10-31T06:01:33;95143.75;;;13.76;56.95
58879;BME280;44660;42.664;23.266;2022-10-31T06:03:59;95138.47;;;13.81;56.96
58879;BME280;44660;42.664;23.266;2022-10-31T06:06:24;95146.56;;;13.86;56.84
58879;BME280;44660;42.664;23.266;2022-10-31T06:08:49;95145.38;;;13.77;57.00
58879;BME280;44660;42.664;23.266;2022-10-31T06:11:14;95156.50;;;13.68;57.35
58879;BME280;44660;42.664;23.266;2022-10-31T06:13:40;95143.69;;;13.70;57.44
58879;BME280;44660;42.664;23.266;2022-10-31T06:16:05;95151.09;;;13.63;57.81
58879;BME280;44660;42.664;23.266;2022-10-31T06:18:30;95150.31;;;13.46;58.17
58879;BME280;44660;42.664;23.266;2022-10-31T06:20:56;95165.94;;;13.54;57.87
58879;BME280;44660;42.664;23.266;2022-10-31T06:23:21;95158.03;;;13.64;57.65
58879;BME280;44660;42.664;23.266;2022-10-31T06:25:50;95169.19;;;13.78;56.94
58879;BME280;44660;42.664;23.266;2022-10-31T06:28:15;95168.13;;;13.79;56.77
58879;BME280;44660;42.664;23.266;2022-10-31T06:30:40;95172.25;;;13.87;56.73
58879;BME280;44660;42.664;23.266;2022-10-31T06:33:06;95172.19;;;13.82;56.97
58879;BME280;44660;42.664;23.266;2022-10-31T06:35:32;95169.50;;;13.82;56.49
58879;BME280;44660;42.664;23.266;2022-10-31T06:37:57;95176.34;;;13.95;56.29
58879;BME280;44660;42.664;23.266;2022-10-31T06:40:23;95176.34;;;13.95;56.21
58879;BME280;44660;42.664;23.266;2022-10-31T06:43:01;95178.28;;;13.99;56.28
58879;BME280;44660;42.664;23.266;2022-10-31T06:45:26;95180.09;;;14.16;55.83
58879;BME280;44660;42.664;23.266;2022-10-31T06:47:52;95181.25;;;14.25;55.83
58879;BME280;44660;42.664;23.266;2022-10-31T06:50:18;95183.28;;;14.40;55.21
58879;BME280;44660;42.664;23.266;2022-10-31T06:52:49;95185.38;;;14.60;54.67
58879;BME280;44660;42.664;23.266;2022-10-31T06:55:14;95181.16;;;14.64;54.61
58879;BME280;44660;42.664;23.266;2022-10-31T06:57:39;95183.31;;;14.67;54.76
58879;BME280;44660;42.664;23.266;2022-10-31T07:00:05;95185.78;;;14.69;54.63
58879;BME280;44660;42.664;23.266;2022-10-31T07:02:31;95175.16;;;14.79;54.34
58879;BME280;44660;42.664;23.266;2022-10-31T07:04:56;95180.25;;;14.81;54.23
58879;BME280;44660;42.664;23.266;2022-10-31T07:07:21;95190.47;;;14.89;53.81
58879;BME280;44660;42.664;23.266;2022-10-31T07:09:47;95187.22;;;14.82;54.24
58879;BME280;44660;42.664;23.266;2022-10-31T07:12:12;95179.28;;;14.92;54.38
58879;BME280;44660;42.664;23.266;2022-10-31T07:14:37;95185.75;;;14.96;54.57
58879;BME280;44660;42.664;23.266;2022-10-31T07:17:02;95187.22;;;15.14;54.12
58879;BME280;44660;42.664;23.266;2022-10-31T07:19:28;95187.41;;;15.35;53.59
58879;BME280;44660;42.664;23.266;2022-10-31T07:21:53;95187.78;;;15.54;52.89
58879;BME280;44660;42.664;23.266;2022-10-31T07:24:18;95185.03;;;15.87;51.94
58879;BME280;44660;42.664;23.266;2022-10-31T07:26:44;95179.56;;;16.19;51.20
58879;BME280;44660;42.664;23.266;2022-10-31T07:29:12;95172.19;;;16.57;49.90
58879;BME280;44660;42.664;23.266;2022-10-31T07:31:37;95174.97;;;17.19;48.75
58879;BME280;44660;42.664;23.266;2022-10-31T07:34:02;95161.19;;;18.98;44.45
58879;BME280;44660;42.664;23.266;2022-10-31T07:36:28;95152.59;;;21.09;39.68
58879;BME280;44660;42.664;23.266;2022-10-31T07:38:53;95147.38;;;23.22;35.75
58879;BME280;44660;42.664;23.266;2022-10-31T07:41:18;95145.75;;;25.52;31.66
58879;BME280;44660;42.664;23.266;2022-10-31T07:43:44;95146.47;;;27.74;28.45
58879;BME280;44660;42.664;23.266;2022-10-31T07:46:10;95139.81;;;29.68;26.04
58879;BME280;44660;42.664;23.266;2022-10-31T07:48:36;95142.31;;;31.24;23.63
58879;BME280;44660;42.664;23.266;2022-10-31T07:51:01;95135.81;;;32.72;21.56
58879;BME280;44660;42.664;23.266;2022-10-31T07:53:27;95132.66;;;34.02;20.69
58879;BME280;44660;42.664;23.266;2022-10-31T07:55:52;95123.34;;;35.40;18.78
58879;BME280;44660;42.664;23.266;2022-10-31T07:58:17;95129.41;;;36.40;18.57
58879;BME280;44660;42.664;23.266;2022-10-31T08:00:44;95134.31;;;37.46;17.13
58879;BME280;44660;42.664;23.266;2022-10-31T08:03:13;95132.09;;;38.46;16.52
58879;BME280;44660;42.664;23.266;2022-10-31T08:05:39;95132.38;;;39.01;15.53
58879;BME280;44660;42.664;23.266;2022-10-31T08:08:06;95129.88;;;39.76;14.53
58879;BME280;44660;42.664;23.266;2022-10-31T08:10:32;95133.88;;;40.29;14.21
58879;BME280;44660;42.664;23.266;2022-10-31T08:12:58;95125.19;;;41.15;13.87
58879;BME280;44660;42.664;23.266;2022-10-31T08:15:24;95130.28;;;42.14;13.13
58879;BME280;44660;42.664;23.266;2022-10-31T08:17:50;95120.94;;;42.04;13.10
58879;BME280;44660;42.664;23.266;2022-10-31T08:20:15;95125.47;;;42.64;12.74
58879;BME280;44660;42.664;23.266;2022-10-31T08:22:41;95125.53;;;43.22;12.29
58879;BME280;44660;42.664;23.266;2022-10-31T08:25:06;95125.44;;;43.81;11.83
58879;BME280;44660;42.664;23.266;2022-10-31T08:27:31;95134.72;;;44.30;11.41
58879;BME280;44660;42.664;23.266;2022-10-31T08:29:57;95125.38;;;44.59;10.68
58879;BME280;44660;42.664;23.266;2022-10-31T08:32:23;95122.00;;;45.43;10.65
58879;BME280;44660;42.664;23.266;2022-10-31T08:34:48;95121.75;;;44.10;11.14
58879;BME280;44660;42.664;23.266;2022-10-31T08:37:13;95119.44;;;44.57;10.99
58879;BME280;44660;42.664;23.266;2022-10-31T08:39:44;95133.22;;;44.99;10.78
58879;BME280;44660;42.664;23.266;2022-10-31T08:42:10;95118.91;;;45.19;10.53
58879;BME280;44660;42.664;23.266;2022-10-31T08:44:35;95114.59;;;45.27;10.01
58879;BME280;44660;42.664;23.266;2022-10-31T08:47:00;95115.59;;;45.65;10.17
58879;BME280;44660;42.664;23.266;2022-10-31T08:49:26;95114.44;;;45.75;10.26
58879;BME280;44660;42.664;23.266;2022-10-31T08:51:51;95114.28;;;46.98;9.63
58879;BME280;44660;42.664;23.266;2022-10-31T08:54:16;95124.69;;;48.05;9.13
58879;BME280;44660;42.664;23.266;2022-10-31T08:56:42;95112.59;;;48.14;8.45
58879;BME280;44660;42.664;23.266;2022-10-31T08:59:07;95117.56;;;48.28;8.62
58879;BME280;44660;42.664;23.266;2022-10-31T09:01:32;95108.94;;;48.80;8.67
58879;BME280;44660;42.664;23.266;2022-10-31T09:03:58;95113.47;;;49.02;8.23
58879;BME280;44660;42.664;23.266;2022-10-31T09:06:23;95112.81;;;49.22;8.18
58879;BME280;44660;42.664;23.266;2022-10-31T09:08:48;95117.75;;;48.97;8.20
58879;BME280;44660;42.664;23.266;2022-10-31T09:11:14;95109.06;;;47.42;9.29
58879;BME280;44660;42.664;23.266;2022-10-31T09:13:39;95103.00;;;47.35;9.23
58879;BME280;44660;42.664;23.266;2022-10-31T09:16:04;95107.50;;;48.36;8.62
58879;BME280;44660;42.664;23.266;2022-10-31T09:18:30;95105.56;;;49.45;8.02
58879;BME280;44660;42.664;23.266;2022-10-31T09:20:57;95101.78;;;50.14;7.68
58879;BME280;44660;42.664;23.266;2022-10-31T09:23:23;95108.16;;;50.09;7.78
58879;BME280;44660;42.664;23.266;2022-10-31T09:25:49;95098.34;;;48.90;8.35
58879;BME280;44660;42.664;23.266;2022-10-31T09:28:16;95094.44;;;48.87;8.45
58879;BME280;44660;42.664;23.266;2022-10-31T09:30:41;95097.75;;;49.25;8.17
58879;BME280;44660;42.664;23.266;2022-10-31T09:33:09;95089.00;;;47.68;8.99
58879;BME280;44660;42.664;23.266;2022-10-31T09:35:35;95083.44;;;46.48;9.41
58879;BME280;44660;42.664;23.266;2022-10-31T09:38:01;95086.78;;;47.20;9.56
58879;BME280;44660;42.664;23.266;2022-10-31T09:40:37;95083.28;;;48.30;8.67
58879;BME280;44660;42.664;23.266;2022-10-31T09:48:23;95087.94;;;48.33;8.69
58879;BME280;44660;42.664;23.266;2022-10-31T09:50:54;95080.81;;;49.25;8.36
58879;BME280;44660;42.664;23.266;2022-10-31T09:55:47;95077.63;;;50.33;7.58
58879;BME280;44660;42.664;23.266;2022-10-31T09:58:19;95085.75;;;48.61;8.17
58879;BME280;44660;42.664;23.266;2022-10-31T10:00:44;95077.19;;;47.36;8.89
58879;BME280;44660;42.664;23.266;2022-10-31T10:03:33;95070.63;;;47.49;8.60
58879;BME280;44660;42.664;23.266;2022-10-31T10:08:30;95072.81;;;44.63;10.47
58879;BME280;44660;42.664;23.266;2022-10-31T10:13:30;95057.78;;;43.44;10.67
58879;BME280;44660;42.664;23.266;2022-10-31T10:16:03;95059.16;;;42.18;11.67
58879;BME280;44660;42.664;23.266;2022-10-31T10:23:47;95048.44;;;37.95;15.16
58879;BME280;44660;42.664;23.266;2022-10-31T10:26:19;95049.88;;;36.62;16.48
58879;BME280;44660;42.664;23.266;2022-10-31T10:28:47;95044.81;;;34.57;18.73
58879;BME280;44660;42.664;23.266;2022-10-31T10:31:14;95047.06;;;33.47;19.14
58879;BME280;44660;42.664;23.266;2022-10-31T10:36:14;95045.34;;;30.81;21.95
58879;BME280;44660;42.664;23.266;2022-10-31T10:38:51;95040.56;;;30.23;22.17
58879;BME280;44660;42.664;23.266;2022-10-31T10:41:18;95036.69;;;30.79;22.06
58879;BME280;44660;42.664;23.266;2022-10-31T10:43:44;95026.50;;;31.19;21.38
58879;BME280;44660;42.664;23.266;2022-10-31T10:49:21;95031.50;;;30.93;22.17
58879;BME280;44660;42.664;23.266;2022-10-31T10:59:15;95031.19;;;30.99;21.31
58879;BME280;44660;42.664;23.266;2022-10-31T11:01:42;95024.38;;;31.32;21.59
58879;BME280;44660;42.664;23.266;2022-10-31T11:09:26;95022.03;;;31.77;20.17
58879;BME280;44660;42.664;23.266;2022-10-31T11:11:51;95018.91;;;31.32;20.66
58879;BME280;44660;42.664;23.266;2022-10-31T11:14:17;95024.06;;;30.74;21.45
58879;BME280;44660;42.664;23.266;2022-10-31T11:16:44;95020.22;;;30.79;20.76
58879;BME280;44660;42.664;23.266;2022-10-31T11:19:24;95011.56;;;30.57;20.56
58879;BME280;44660;42.664;23.266;2022-10-31T11:21:51;95004.75;;;30.90;21.04
58879;BME280;44660;42.664;23.266;2022-10-31T11:24:18;95006.56;;;31.02;20.57
58879;BME280;44660;42.664;23.266;2022-10-31T11:26:45;95002.78;;;31.30;20.58
58879;BME280;44660;42.664;23.266;2022-10-31T11:29:14;94995.56;;;31.45;20.51
58879;BME280;44660;42.664;23.266;2022-10-31T11:31:40;95003.63;;;31.11;21.33
58879;BME280;44660;42.664;23.266;2022-10-31T11:34:11;94994.94;;;31.09;20.91
58879;BME280;44660;42.664;23.266;2022-10-31T11:36:38;95002.59;;;30.80;21.29
58879;BME280;44660;42.664;23.266;2022-10-31T11:39:04;94994.41;;;30.44;21.98
58879;BME280;44660;42.664;23.266;2022-10-31T11:41:34;94993.47;;;30.37;22.17
58879;BME280;44660;42.664;23.266;2022-10-31T11:44:04;94994.69;;;30.20;22.54
58879;BME280;44660;42.664;23.266;2022-10-31T11:46:33;94988.16;;;30.44;22.13
58879;BME280;44660;42.664;23.266;2022-10-31T11:48:59;94993.75;;;30.12;22.57
58879;BME280;44660;42.664;23.266;2022-10-31T11:51:26;94979.41;;;30.38;21.82
58879;BME280;44660;42.664;23.266;2022-10-31T11:53:53;94982.38;;;30.69;21.99
58879;BME280;44660;42.664;23.266;2022-10-31T11:56:20;94983.13;;;30.66;21.60
58879;BME280;44660;42.664;23.266;2022-10-31T11:58:55;94983.19;;;30.14;22.61
58879;BME280;44660;42.664;23.266;2022-10-31T12:01:25;94982.91;;;30.19;22.31
58879;BME280;44660;42.664;23.266;2022-10-31T12:06:28;94970.50;;;30.25;22.21
58879;BME280;44660;42.664;23.266;2022-10-31T12:08:55;94973.69;;;30.27;22.59
58879;BME280;44660;42.664;23.266;2022-10-31T12:16:52;94975.56;;;29.72;22.36
58879;BME280;44660;42.664;23.266;2022-10-31T12:19:30;94974.00;;;29.39;22.68
58879;BME280;44660;42.664;23.266;2022-10-31T12:21:59;94982.72;;;29.44;23.08
58879;BME280;44660;42.664;23.266;2022-10-31T12:27:28;94971.25;;;28.38;24.84
58879;BME280;44660;42.664;23.266;2022-10-31T12:32:32;94973.16;;;28.09;24.66
58879;BME280;44660;42.664;23.266;2022-10-31T12:52:16;94968.81;;;27.95;24.92
58879;BME280;44660;42.664;23.266;2022-10-31T12:57:30;94960.41;;;28.13;25.15
58879;BME280;44660;42.664;23.266;2022-10-31T13:07:21;94963.78;;;28.22;24.61
58879;BME280;44660;42.664;23.266;2022-10-31T13:10:02;94965.50;;;28.27;24.72
58879;BME280;44660;42.664;23.266;2022-10-31T13:12:31;94963.31;;;28.20;24.31
58879;BME280;44660;42.664;23.266;2022-10-31T13:14:58;94963.59;;;28.02;24.90
58879;BME280;44660;42.664;23.266;2022-10-31T13:17:30;94966.69;;;27.51;25.53
58879;BME280;44660;42.664;23.266;2022-10-31T13:20:01;94968.63;;;27.51;25.62
58879;BME280;44660;42.664;23.266;2022-10-31T13:22:30;94966.91;;;27.34;25.74
58879;BME280;44660;42.664;23.266;2022-10-31T13:25:09;94967.53;;;27.06;26.34
58879;BME280;44660;42.664;23.266;2022-10-31T13:27:47;94971.44;;;26.84;26.45
58879;BME280;44660;42.664;23.266;2022-10-31T13:30:16;94971.88;;;26.73;26.66
58879;BME280;44660;42.664;23.266;2022-10-31T13:45:51;94969.31;;;25.84;27.96
58879;BME280;44660;42.664;23.266;2022-10-31T13:50:43;94961.66;;;25.77;28.06
58879;BME280;44660;42.664;23.266;2022-10-31T13:53:10;94967.59;;;25.79;28.15
58879;BME280;44660;42.664;23.266;2022-10-31T13:55:41;94962.53;;;25.90;27.46
58879;BME280;44660;42.664;23.266;2022-10-31T14:00:44;94961.97;;;26.05;28.10
58879;BME280;44660;42.664;23.266;2022-10-31T14:03:17;94966.81;;;26.00;27.52
58879;BME280;44660;42.664;23.266;2022-10-31T14:05:43;94971.28;;;26.04;27.66
58879;BME280;44660;42.664;23.266;2022-10-31T14:08:17;94967.78;;;25.95;27.60
58879;BME280;44660;42.664;23.266;2022-10-31T14:10:47;94969.59;;;25.91;27.45
58879;BME280;44660;42.664;23.266;2022-10-31T14:13:36;94971.09;;;25.80;28.25
58879;BME280;44660;42.664;23.266;2022-10-31T14:16:06;94971.63;;;25.73;28.32
58879;BME280;44660;42.664;23.266;2022-10-31T14:18:41;94975.41;;;25.51;29.05
58879;BME280;44660;42.664;23.266;2022-10-31T14:21:26;94979.16;;;25.37;28.84
58879;BME280;44660;42.664;23.266;2022-10-31T14:23:53;94980.78;;;25.30;28.92
58879;BME280;44660;42.664;23.266;2022-10-31T14:28:51;94976.34;;;25.16;30.60
58879;BME280;44660;42.664;23.266;2022-10-31T14:33:51;94982.97;;;24.89;30.44
58879;BME280;44660;42.664;23.266;2022-10-31T14:39:07;94989.88;;;24.60;30.45
58879;BME280;44660;42.664;23.266;2022-10-31T14:41:40;94979.00;;;24.51;30.52
58879;BME280;44660;42.664;23.266;2022-10-31T14:44:34;94978.06;;;24.29;30.86
58879;BME280;44660;42.664;23.266;2022-10-31T14:47:09;94979.00;;;24.07;31.44
58879;BME280;44660;42.664;23.266;2022-10-31T14:52:07;94977.34;;;23.89;31.50
58879;BME280;44660;42.664;23.266;2022-10-31T14:54:37;94984.53;;;23.85;33.54
58879;BME280;44660;42.664;23.266;2022-10-31T14:57:12;94982.09;;;23.74;34.22
58879;BME280;44660;42.664;23.266;2022-10-31T14:59:39;94980.94;;;23.58;34.31
58879;BME280;44660;42.664;23.266;2022-10-31T15:02:09;94992.56;;;23.41;35.40
58879;BME280;44660;42.664;23.266;2022-10-31T15:04:36;94984.66;;;23.22;34.78
58879;BME280;44660;42.664;23.266;2022-10-31T15:07:04;94983.25;;;23.02;35.64
58879;BME280;44660;42.664;23.266;2022-10-31T15:09:33;94991.34;;;22.70;35.49
58879;BME280;44660;42.664;23.266;2022-10-31T15:11:59;94988.25;;;22.54;36.30
58879;BME280;44660;42.664;23.266;2022-10-31T15:14:31;94984.88;;;22.34;36.38